sensor_id;sensor_type;location;lat;lon;timestamp;pressure;altitude;pressure_sealevel;temperature;humidity
51083;BME280;37131;42.694;23.350;2024-01-16T00:01:14;94003.75;;;1.50;74.82
51083;BME280;37131;42.694;23.350;2024-01-16T00:03:41;94003.84;;;1.58;75.11
51083;BME280;37131;42.694;23.350;2024-01-16T00:06:07;94017.81;;;1.54;75.38
51083;BME280;37131;42.694;23.350;2024-01-16T00:08:32;94030.88;;;1.69;74.19
51083;BME280;37131;42.694;23.350;2024-01-16T00:10:58;94033.53;;;1.77;73.85
51083;BME280;37131;42.694;23.350;2024-01-16T00:13:23;94040.47;;;1.85;73.58
51083;BME280;37131;42.694;23.350;2024-01-16T00:15:49;94029.59;;;1.92;73.56
51083;BME280;37131;42.694;23.350;2024-01-16T00:18:15;94031.88;;;1.95;73.85
51083;BME280;37131;42.694;23.350;2024-01-16T00:20:41;94034.66;;;2.02;73.90
51083;BME280;37131;42.694;23.350;2024-01-16T00:23:07;94030.28;;;1.94;74.09
51083;BME280;37131;42.694;23.350;2024-01-16T00:25:32;94029.78;;;2.09;73.58
51083;BME280;37131;42.694;23.350;2024-01-16T00:27:57;94033.09;;;2.19;72.85
51083;BME280;37131;42.694;23.350;2024-01-16T00:30:23;94032.69;;;2.23;72.46
51083;BME280;37131;42.694;23.350;2024-01-16T00:32:48;94051.47;;;2.22;72.24
51083;BME280;37131;42.694;23.350;2024-01-16T00:35:14;94045.13;;;2.26;72.38
51083;BME280;37131;42.694;23.350;2024-01-16T00:37:39;94043.81;;;2.22;72.89
51083;BME280;37131;42.694;23.350;2024-01-16T00:40:05;94045.66;;;2.30;72.41
51083;BME280;37131;42.694;23.350;2024-01-16T00:42:31;94037.59;;;2.07;72.92
51083;BME280;37131;42.694;23.350;2024-01-16T00:44:57;94037.06;;;2.04;73.28
51083;BME280;37131;42.694;23.350;2024-01-16T00:47:23;94035.50;;;2.20;72.85
51083;BME280;37131;42.694;23.350;2024-01-16T00:49:48;94048.06;;;2.31;72.43
51083;BME280;37131;42.694;23.350;2024-01-16T00:52:14;94045.84;;;2.19;73.56
51083;BME280;37131;42.694;23.350;2024-01-16T00:54:40;94045.72;;;2.11;73.89
51083;BME280;37131;42.694;23.350;2024-01-16T00:57:07;94055.59;;;2.23;73.55
51083;BME280;37131;42.694;23.350;2024-01-16T00:59:32;94051.22;;;2.16;73.09
51083;BME280;37131;42.694;23.350;2024-01-16T01:01:57;94053.91;;;2.14;74.20
51083;BME280;37131;42.694;23.350;2024-01-16T01:04:23;94062.16;;;2.26;72.91
51083;BME280;37131;42.694;23.350;2024-01-16T01:06:48;94070.59;;;2.26;73.05
51083;BME280;37131;42.694;23.350;2024-01-16T01:09:14;94083.44;;;2.35;73.06
51083;BME280;37131;42.694;23.350;2024-01-16T01:11:39;94076.75;;;2.33;72.68
51083;BME280;37131;42.694;23.350;2024-01-16T01:14:04;94090.28;;;2.34;72.58
51083;BME280;37131;42.694;23.350;2024-01-16T01:16:31;94083.84;;;2.40;72.32
51083;BME280;37131;42.694;23.350;2024-01-16T01:18:56;94071.91;;;2.40;71.37
51083;BME280;37131;42.694;23.350;2024-01-16T01:21:22;94060.00;;;2.31;72.97
51083;BME280;37131;42.694;23.350;2024-01-16T01:23:47;94050.56;;;2.41;72.54
51083;BME280;37131;42.694;23.350;2024-01-16T01:26:12;94072.84;;;2.39;72.84
51083;BME280;37131;42.694;23.350;2024-01-16T01:28:43;94063.22;;;2.33;72.75
51083;BME280;37131;42.694;23.350;2024-01-16T01:31:10;94054.00;;;2.22;73.22
51083;BME280;37131;42.694;23.350;2024-01-16T01:33:35;94059.34;;;2.29;73.53
51083;BME280;37131;42.694;23.350;2024-01-16T01:36:01;94054.50;;;2.36;72.89
51083;BME280;37131;42.694;23.350;2024-01-16T01:38:29;94058.06;;;2.43;71.98
51083;BME280;37131;42.694;23.350;2024-01-16T01:40:55;94051.38;;;2.42;72.70
51083;BME280;37131;42.694;23.350;2024-01-16T01:43:24;94057.22;;;2.52;72.13
51083;BME280;37131;42.694;23.350;2024-01-16T01:48:41;94037.13;;;2.49;72.25
51083;BME280;37131;42.694;23.350;2024-01-16T01:51:08;94063.84;;;2.62;72.55
51083;BME280;37131;42.694;23.350;2024-01-16T01:53:34;94078.16;;;2.73;70.76
51083;BME280;37131;42.694;23.350;2024-01-16T01:56:03;94038.97;;;2.74;70.63
51083;BME280;37131;42.694;23.350;2024-01-16T01:58:34;94054.78;;;2.78;69.61
51083;BME280;37131;42.694;23.350;2024-01-16T02:01:00;94071.72;;;2.69;70.56
51083;BME280;37131;42.694;23.350;2024-01-16T02:03:27;94067.06;;;2.64;69.92
51083;BME280;37131;42.694;23.350;2024-01-16T02:05:54;94047.50;;;2.38;71.90
51083;BME280;37131;42.694;23.350;2024-01-16T02:08:20;94071.44;;;2.54;70.75
51083;BME280;37131;42.694;23.350;2024-01-16T02:10:47;94062.47;;;2.68;70.48
51083;BME280;37131;42.694;23.350;2024-01-16T02:13:14;94063.03;;;2.44;71.87
51083;BME280;37131;42.694;23.350;2024-01-16T02:15:40;94066.00;;;2.40;72.32
51083;BME280;37131;42.694;23.350;2024-01-16T02:18:07;94068.09;;;2.54;71.53
51083;BME280;37131;42.694;23.350;2024-01-16T02:20:32;94064.31;;;2.58;71.88
51083;BME280;37131;42.694;23.350;2024-01-16T02:23:00;94077.78;;;2.68;71.10
51083;BME280;37131;42.694;23.350;2024-01-16T02:25:27;94077.22;;;2.74;71.16
51083;BME280;37131;42.694;23.350;2024-01-16T02:27:52;94087.44;;;2.64;70.74
51083;BME280;37131;42.694;23.350;2024-01-16T02:30:17;94086.75;;;2.72;70.75
51083;BME280;37131;42.694;23.350;2024-01-16T02:32:43;94098.41;;;2.75;71.30
51083;BME280;37131;42.694;23.350;2024-01-16T02:35:08;94102.56;;;2.48;71.65
51083;BME280;37131;42.694;23.350;2024-01-16T02:37:35;94108.34;;;2.50;72.77
51083;BME280;37131;42.694;23.350;2024-01-16T02:40:00;94100.28;;;2.55;72.51
51083;BME280;37131;42.694;23.350;2024-01-16T02:42:29;94097.88;;;2.71;71.43
51083;BME280;37131;42.694;23.350;2024-01-16T02:44:55;94120.31;;;2.67;71.88
51083;BME280;37131;42.694;23.350;2024-01-16T02:47:20;94126.91;;;2.60;71.83
51083;BME280;37131;42.694;23.350;2024-01-16T02:49:45;94119.19;;;2.52;72.54
51083;BME280;37131;42.694;23.350;2024-01-16T02:52:11;94139.31;;;2.46;73.49
51083;BME280;37131;42.694;23.350;2024-01-16T02:54:37;94157.28;;;2.54;72.87
51083;BME280;37131;42.694;23.350;2024-01-16T02:57:02;94161.50;;;2.63;72.52
51083;BME280;37131;42.694;23.350;2024-01-16T02:59:28;94168.44;;;2.71;71.85
51083;BME280;37131;42.694;23.350;2024-01-16T03:01:55;94176.09;;;2.71;72.08
51083;BME280;37131;42.694;23.350;2024-01-16T03:04:21;94177.00;;;2.79;72.09
51083;BME280;37131;42.694;23.350;2024-01-16T03:06:46;94178.34;;;2.83;71.61
51083;BME280;37131;42.694;23.350;2024-01-16T03:09:11;94182.47;;;2.84;71.55
51083;BME280;37131;42.694;23.350;2024-01-16T03:11:37;94192.94;;;2.91;72.17
51083;BME280;37131;42.694;23.350;2024-01-16T03:14:02;94199.38;;;2.85;71.05
51083;BME280;37131;42.694;23.350;2024-01-16T03:16:28;94205.00;;;2.89;71.72
51083;BME280;37131;42.694;23.350;2024-01-16T03:18:54;94215.47;;;2.95;75.01
51083;BME280;37131;42.694;23.350;2024-01-16T03:21:19;94227.25;;;3.24;79.57
51083;BME280;37131;42.694;23.350;2024-01-16T03:23:44;94229.47;;;3.37;81.32
51083;BME280;37131;42.694;23.350;2024-01-16T03:26:13;94228.09;;;3.42;81.59
51083;BME280;37131;42.694;23.350;2024-01-16T03:28:39;94239.34;;;3.49;81.90
51083;BME280;37131;42.694;23.350;2024-01-16T03:31:05;94245.19;;;3.59;81.31
51083;BME280;37131;42.694;23.350;2024-01-16T03:33:30;94253.81;;;3.58;81.42
51083;BME280;37131;42.694;23.350;2024-01-16T03:35:55;94266.41;;;3.60;80.36
51083;BME280;37131;42.694;23.350;2024-01-16T03:38:21;94268.03;;;3.61;81.06
51083;BME280;37131;42.694;23.350;2024-01-16T03:40:46;94278.91;;;3.63;80.53
51083;BME280;37131;42.694;23.350;2024-01-16T03:43:12;94276.53;;;3.52;81.46
51083;BME280;37131;42.694;23.350;2024-01-16T03:45:37;94289.81;;;3.55;81.59
51083;BME280;37131;42.694;23.350;2024-01-16T03:48:03;94293.56;;;3.61;79.70
51083;BME280;37131;42.694;23.350;2024-01-16T03:50:28;94303.56;;;3.45;79.35
51083;BME280;37131;42.694;23.350;2024-01-16T03:52:54;94310.19;;;3.38;79.78
51083;BME280;37131;42.694;23.350;2024-01-16T03:55:19;94309.50;;;3.08;80.48
51083;BME280;37131;42.694;23.350;2024-01-16T03:57:44;94310.16;;;3.10;79.71
51083;BME280;37131;42.694;23.350;2024-01-16T04:00:13;94325.28;;;3.21;78.65
51083;BME280;37131;42.694;23.350;2024-01-16T04:02:39;94330.13;;;3.15;78.27
51083;BME280;37131;42.694;23.350;2024-01-16T04:05:04;94339.03;;;3.11;78.16
51083;BME280;37131;42.694;23.350;2024-01-16T04:07:30;94345.34;;;3.07;77.76
51083;BME280;37131;42.694;23.350;2024-01-16T04:09:56;94353.41;;;3.02;77.55
51083;BME280;37131;42.694;23.350;2024-01-16T04:12:21;94356.66;;;2.85;78.44
51083;BME280;37131;42.694;23.350;2024-01-16T04:14:47;94358.53;;;2.83;78.11
51083;BME280;37131;42.694;23.350;2024-01-16T04:17:12;94361.59;;;2.96;77.29
51083;BME280;37131;42.694;23.350;2024-01-16T04:19:38;94370.34;;;2.93;77.65
51083;BME280;37131;42.694;23.350;2024-01-16T04:22:04;94374.25;;;2.88;77.86
51083;BME280;37131;42.694;23.350;2024-01-16T04:24:30;94368.59;;;2.84;77.37
51083;BME280;37131;42.694;23.350;2024-01-16T04:26:56;94371.69;;;2.69;77.52
51083;BME280;37131;42.694;23.350;2024-01-16T04:29:21;94380.28;;;2.77;77.17
51083;BME280;37131;42.694;23.350;2024-01-16T04:31:46;94389.13;;;2.83;76.70
51083;BME280;37131;42.694;23.350;2024-01-16T04:34:13;94402.56;;;2.65;76.36
51083;BME280;37131;42.694;23.350;2024-01-16T04:36:38;94394.22;;;2.63;76.70
51083;BME280;37131;42.694;23.350;2024-01-16T04:39:03;94398.53;;;2.63;76.97
51083;BME280;37131;42.694;23.350;2024-01-16T04:41:29;94399.75;;;2.69;75.97
51083;BME280;37131;42.694;23.350;2024-01-16T04:43:54;94406.75;;;2.57;76.07
51083;BME280;37131;42.694;23.350;2024-01-16T04:46:20;94419.47;;;2.66;75.19
51083;BME280;37131;42.694;23.350;2024-01-16T04:48:45;94432.09;;;2.58;74.91
51083;BME280;37131;42.694;23.350;2024-01-16T04:51:11;94439.44;;;2.71;74.18
51083;BME280;37131;42.694;23.350;2024-01-16T04:53:36;94458.38;;;2.59;74.54
51083;BME280;37131;42.694;23.350;2024-01-16T04:56:02;94450.88;;;2.57;74.73
51083;BME280;37131;42.694;23.350;2024-01-16T04:58:27;94467.34;;;2.44;74.84
51083;BME280;37131;42.694;23.350;2024-01-16T05:00:53;94467.47;;;2.42;75.14
51083;BME280;37131;42.694;23.350;2024-01-16T05:03:18;94479.41;;;2.42;75.19
51083;BME280;37131;42.694;23.350;2024-01-16T05:05:44;94492.09;;;2.22;75.29
51083;BME280;37131;42.694;23.350;2024-01-16T05:08:09;94488.91;;;2.30;75.49
51083;BME280;37131;42.694;23.350;2024-01-16T05:10:34;94503.34;;;2.20;74.98
51083;BME280;37131;42.694;23.350;2024-01-16T05:13:00;94512.03;;;2.17;74.61
51083;BME280;37131;42.694;23.350;2024-01-16T05:15:26;94511.78;;;2.20;74.33
51083;BME280;37131;42.694;23.350;2024-01-16T05:17:51;94518.06;;;2.16;74.23
51083;BME280;37131;42.694;23.350;2024-01-16T05:20:18;94529.19;;;2.15;74.21
51083;BME280;37131;42.694;23.350;2024-01-16T05:22:43;94528.19;;;1.97;75.63
51083;BME280;37131;42.694;23.350;2024-01-16T05:25:27;94547.53;;;2.09;74.95
51083;BME280;37131;42.694;23.350;2024-01-16T05:27:52;94558.81;;;2.07;74.49
51083;BME280;37131;42.694;23.350;2024-01-16T05:30:18;94565.22;;;2.11;74.05
51083;BME280;37131;42.694;23.350;2024-01-16T05:32:44;94573.56;;;2.13;74.15
51083;BME280;37131;42.694;23.350;2024-01-16T05:35:09;94573.66;;;2.02;74.12
51083;BME280;37131;42.694;23.350;2024-01-16T05:37:35;94579.94;;;1.97;74.67
51083;BME280;37131;42.694;23.350;2024-01-16T05:40:01;94586.38;;;2.02;75.04
51083;BME280;37131;42.694;23.350;2024-01-16T05:42:28;94594.28;;;1.98;74.13
51083;BME280;37131;42.694;23.350;2024-01-16T05:44:53;94592.72;;;2.07;73.44
51083;BME280;37131;42.694;23.350;2024-01-16T05:47:19;94608.00;;;1.86;73.61
51083;BME280;37131;42.694;23.350;2024-01-16T05:49:44;94616.50;;;1.96;73.07
51083;BME280;37131;42.694;23.350;2024-01-16T05:52:10;94631.72;;;1.87;73.26
51083;BME280;37131;42.694;23.350;2024-01-16T05:54:35;94631.41;;;1.80;72.80
51083;BME280;37131;42.694;23.350;2024-01-16T05:57:01;94645.50;;;1.84;73.31
51083;BME280;37131;42.694;23.350;2024-01-16T05:59:26;94653.44;;;1.91;73.14
51083;BME280;37131;42.694;23.350;2024-01-16T06:01:51;94658.75;;;1.99;73.08
51083;BME280;37131;42.694;23.350;2024-01-16T06:04:17;94663.50;;;1.92;71.88
51083;BME280;37131;42.694;23.350;2024-01-16T06:06:42;94667.91;;;1.90;72.83
51083;BME280;37131;42.694;23.350;2024-01-16T06:09:10;94678.47;;;1.86;72.46
51083;BME280;37131;42.694;23.350;2024-01-16T06:11:39;94674.56;;;1.82;72.25
51083;BME280;37131;42.694;23.350;2024-01-16T06:14:06;94688.09;;;1.82;72.35
51083;BME280;37131;42.694;23.350;2024-01-16T06:16:31;94689.72;;;1.83;72.41
51083;BME280;37131;42.694;23.350;2024-01-16T06:18:57;94703.19;;;1.95;71.67
51083;BME280;37131;42.694;23.350;2024-01-16T06:21:23;94711.09;;;1.92;72.08
51083;BME280;37131;42.694;23.350;2024-01-16T06:23:48;94720.56;;;1.90;72.69
51083;BME280;37131;42.694;23.350;2024-01-16T06:26:13;94728.84;;;2.03;71.71
51083;BME280;37131;42.694;23.350;2024-01-16T06:28:39;94735.31;;;2.07;71.05
51083;BME280;37131;42.694;23.350;2024-01-16T06:31:07;94728.09;;;1.91;70.94
51083;BME280;37131;42.694;23.350;2024-01-16T06:33:32;94739.56;;;1.86;70.78
51083;BME280;37131;42.694;23.350;2024-01-16T06:35:58;94732.78;;;1.75;70.82
51083;BME280;37131;42.694;23.350;2024-01-16T06:38:24;94738.78;;;1.74;71.41
51083;BME280;37131;42.694;23.350;2024-01-16T06:40:49;94742.72;;;1.78;71.33
51083;BME280;37131;42.694;23.350;2024-01-16T06:43:15;94747.69;;;1.80;71.54
51083;BME280;37131;42.694;23.350;2024-01-16T06:45:43;94744.38;;;1.68;70.94
51083;BME280;37131;42.694;23.350;2024-01-16T06:48:09;94762.06;;;1.70;70.71
51083;BME280;37131;42.694;23.350;2024-01-16T06:50:35;94769.91;;;1.78;71.75
51083;BME280;37131;42.694;23.350;2024-01-16T06:53:00;94776.53;;;1.69;71.18
51083;BME280;37131;42.694;23.350;2024-01-16T06:55:26;94782.19;;;1.73;71.15
51083;BME280;37131;42.694;23.350;2024-01-16T06:57:51;94789.69;;;1.85;70.97
51083;BME280;37131;42.694;23.350;2024-01-16T07:00:17;94797.91;;;1.78;70.50
51083;BME280;37131;42.694;23.350;2024-01-16T07:02:42;94804.75;;;1.77;71.07
51083;BME280;37131;42.694;23.350;2024-01-16T07:05:11;94807.63;;;1.84;70.95
51083;BME280;37131;42.694;23.350;2024-01-16T07:07:37;94807.28;;;1.77;71.53
51083;BME280;37131;42.694;23.350;2024-01-16T07:10:02;94810.84;;;1.86;70.06
51083;BME280;37131;42.694;23.350;2024-01-16T07:12:28;94818.13;;;1.90;70.15
51083;BME280;37131;42.694;23.350;2024-01-16T07:14:53;94824.97;;;1.79;70.16
51083;BME280;37131;42.694;23.350;2024-01-16T07:17:19;94835.38;;;1.87;70.13
51083;BME280;37131;42.694;23.350;2024-01-16T07:19:44;94845.81;;;1.84;70.13
51083;BME280;37131;42.694;23.350;2024-01-16T07:22:10;94861.53;;;1.78;70.46
51083;BME280;37131;42.694;23.350;2024-01-16T07:24:35;94861.53;;;1.89;69.51
51083;BME280;37131;42.694;23.350;2024-01-16T07:27:00;94876.78;;;2.00;69.30
51083;BME280;37131;42.694;23.350;2024-01-16T07:29:26;94887.59;;;1.81;69.56
51083;BME280;37131;42.694;23.350;2024-01-16T07:31:51;94897.41;;;1.75;70.49
51083;BME280;37131;42.694;23.350;2024-01-16T07:34:18;94889.31;;;1.81;70.30
51083;BME280;37131;42.694;23.350;2024-01-16T07:36:47;94890.59;;;1.64;70.61
51083;BME280;37131;42.694;23.350;2024-01-16T07:39:13;94901.81;;;1.61;71.30
51083;BME280;37131;42.694;23.350;2024-01-16T07:41:39;94911.31;;;1.71;70.38
51083;BME280;37131;42.694;23.350;2024-01-16T07:44:05;94916.28;;;1.83;69.94
51083;BME280;37131;42.694;23.350;2024-01-16T07:46:30;94915.69;;;1.91;69.63
51083;BME280;37131;42.694;23.350;2024-01-16T07:48:55;94917.53;;;1.89;69.65
51083;BME280;37131;42.694;23.350;2024-01-16T07:51:21;94925.06;;;1.79;70.54
51083;BME280;37131;42.694;23.350;2024-01-16T07:53:46;94930.97;;;1.80;69.78
51083;BME280;37131;42.694;23.350;2024-01-16T07:56:14;94925.41;;;1.86;69.91
51083;BME280;37131;42.694;23.350;2024-01-16T07:58:39;94933.06;;;1.52;70.85
51083;BME280;37131;42.694;23.350;2024-01-16T08:01:04;94949.25;;;1.62;70.59
51083;BME280;37131;42.694;23.350;2024-01-16T08:03:33;94950.53;;;1.68;70.81
51083;BME280;37131;42.694;23.350;2024-01-16T08:05:58;94955.94;;;1.63;71.32
51083;BME280;37131;42.694;23.350;2024-01-16T08:08:24;94959.31;;;1.86;71.05
51083;BME280;37131;42.694;23.350;2024-01-16T08:10:49;94968.69;;;1.75;70.49
51083;BME280;37131;42.694;23.350;2024-01-16T08:13:15;94971.94;;;1.88;69.49
51083;BME280;37131;42.694;23.350;2024-01-16T08:15:40;94973.09;;;1.84;69.31
51083;BME280;37131;42.694;23.350;2024-01-16T08:18:05;94976.69;;;2.04;68.37
51083;BME280;37131;42.694;23.350;2024-01-16T08:20:31;94982.09;;;2.10;68.31
51083;BME280;37131;42.694;23.350;2024-01-16T08:22:57;94997.50;;;2.20;67.43
51083;BME280;37131;42.694;23.350;2024-01-16T08:25:23;95002.13;;;2.15;66.46
51083;BME280;37131;42.694;23.350;2024-01-16T08:27:48;94996.22;;;2.14;65.75
51083;BME280;37131;42.694;23.350;2024-01-16T08:30:14;95007.84;;;2.07;66.67
51083;BME280;37131;42.694;23.350;2024-01-16T08:32:39;95008.06;;;1.93;66.26
51083;BME280;37131;42.694;23.350;2024-01-16T08:35:05;95013.16;;;1.93;66.74
51083;BME280;37131;42.694;23.350;2024-01-16T08:37:33;95022.28;;;1.84;66.57
51083;BME280;37131;42.694;23.350;2024-01-16T08:39:59;95032.22;;;1.87;66.58
51083;BME280;37131;42.694;23.350;2024-01-16T08:42:24;95030.03;;;1.83;67.08
51083;BME280;37131;42.694;23.350;2024-01-16T08:44:50;95033.63;;;2.03;68.04
51083;BME280;37131;42.694;23.350;2024-01-16T08:47:15;95041.50;;;1.99;67.08
51083;BME280;37131;42.694;23.350;2024-01-16T08:49:41;95036.53;;;1.98;67.07
51083;BME280;37131;42.694;23.350;2024-01-16T08:52:07;95041.59;;;2.09;66.34
51083;BME280;37131;42.694;23.350;2024-01-16T08:54:32;95048.31;;;2.10;67.10
51083;BME280;37131;42.694;23.350;2024-01-16T08:56:57;95059.44;;;1.87;67.03
51083;BME280;37131;42.694;23.350;2024-01-16T08:59:23;95069.38;;;1.90;67.63
51083;BME280;37131;42.694;23.350;2024-01-16T09:01:49;95066.59;;;1.82;67.24
51083;BME280;37131;42.694;23.350;2024-01-16T09:04:15;95067.16;;;1.74;67.22
51083;BME280;37131;42.694;23.350;2024-01-16T09:06:40;95061.94;;;1.76;67.81
51083;BME280;37131;42.694;23.350;2024-01-16T09:09:06;95060.09;;;1.78;67.67
51083;BME280;37131;42.694;23.350;2024-01-16T09:11:31;95069.38;;;1.90;67.43
51083;BME280;37131;42.694;23.350;2024-01-16T09:13:59;95061.19;;;1.97;68.88
51083;BME280;37131;42.694;23.350;2024-01-16T09:16:24;95063.28;;;2.04;66.14
51083;BME280;37131;42.694;23.350;2024-01-16T09:18:50;95073.69;;;2.12;65.53
51083;BME280;37131;42.694;23.350;2024-01-16T09:21:15;95070.34;;;2.00;66.23
51083;BME280;37131;42.694;23.350;2024-01-16T09:23:41;95072.63;;;2.14;65.71
51083;BME280;37131;42.694;23.350;2024-01-16T09:26:06;95088.38;;;1.97;66.26
51083;BME280;37131;42.694;23.350;2024-01-16T09:28:32;95087.00;;;2.04;65.67
51083;BME280;37131;42.694;23.350;2024-01-16T09:30:57;95097.06;;;2.17;64.91
51083;BME280;37131;42.694;23.350;2024-01-16T09:33:23;95091.28;;;2.26;65.44
51083;BME280;37131;42.694;23.350;2024-01-16T09:35:50;95089.31;;;2.18;65.15
51083;BME280;37131;42.694;23.350;2024-01-16T09:38:15;95074.84;;;2.19;65.15
51083;BME280;37131;42.694;23.350;2024-01-16T09:40:41;95079.94;;;1.96;65.76
51083;BME280;37131;42.694;23.350;2024-01-16T09:43:07;95077.84;;;2.24;65.34
51083;BME280;37131;42.694;23.350;2024-01-16T09:45:37;95081.22;;;2.36;65.75
51083;BME280;37131;42.694;23.350;2024-01-16T09:48:03;95087.13;;;2.58;64.34
51083;BME280;37131;42.694;23.350;2024-01-16T09:50:29;95092.66;;;2.63;63.00
51083;BME280;37131;42.694;23.350;2024-01-16T09:52:55;95100.81;;;2.57;63.95
51083;BME280;37131;42.694;23.350;2024-01-16T09:55:20;95103.47;;;2.56;62.67
51083;BME280;37131;42.694;23.350;2024-01-16T09:57:50;95090.59;;;2.46;62.86
51083;BME280;37131;42.694;23.350;2024-01-16T10:00:17;95089.44;;;2.50;63.88
51083;BME280;37131;42.694;23.350;2024-01-16T10:02:42;95083.31;;;2.53;62.80
51083;BME280;37131;42.694;23.350;2024-01-16T10:05:09;95076.44;;;2.76;64.65
51083;BME280;37131;42.694;23.350;2024-01-16T10:07:39;95083.34;;;2.96;61.86
51083;BME280;37131;42.694;23.350;2024-01-16T10:10:05;95079.84;;;3.08;60.59
51083;BME280;37131;42.694;23.350;2024-01-16T10:12:31;95077.00;;;3.22;60.58
51083;BME280;37131;42.694;23.350;2024-01-16T10:14:57;95078.97;;;2.87;60.54
51083;BME280;37131;42.694;23.350;2024-01-16T10:17:36;95072.47;;;2.94;60.12
51083;BME280;37131;42.694;23.350;2024-01-16T10:20:02;95084.03;;;2.98;59.38
51083;BME280;37131;42.694;23.350;2024-01-16T10:22:30;95088.63;;;3.15;59.59
51083;BME280;37131;42.694;23.350;2024-01-16T10:25:10;95101.53;;;3.03;58.49
51083;BME280;37131;42.694;23.350;2024-01-16T10:27:39;95107.81;;;2.98;59.51
51083;BME280;37131;42.694;23.350;2024-01-16T10:30:06;95100.41;;;2.95;59.68
51083;BME280;37131;42.694;23.350;2024-01-16T10:32:36;95093.56;;;2.96;59.24
51083;BME280;37131;42.694;23.350;2024-01-16T10:35:06;95106.16;;;3.09;59.31
51083;BME280;37131;42.694;23.350;2024-01-16T10:37:43;95096.56;;;3.01;58.82
51083;BME280;37131;42.694;23.350;2024-01-16T10:40:24;95091.59;;;2.77;59.93
51083;BME280;37131;42.694;23.350;2024-01-16T10:45:22;95102.16;;;3.59;58.77
51083;BME280;37131;42.694;23.350;2024-01-16T10:47:49;95103.03;;;3.90;57.39
51083;BME280;37131;42.694;23.350;2024-01-16T10:50:14;95095.66;;;4.17;54.70
51083;BME280;37131;42.694;23.350;2024-01-16T10:52:47;95097.41;;;4.17;57.17
51083;BME280;37131;42.694;23.350;2024-01-16T10:55:20;95107.63;;;4.17;56.52
51083;BME280;37131;42.694;23.350;2024-01-16T10:57:50;95091.84;;;4.02;56.18
51083;BME280;37131;42.694;23.350;2024-01-16T11:00:20;95080.94;;;4.00;57.26
51083;BME280;37131;42.694;23.350;2024-01-16T11:02:54;95092.09;;;3.99;56.19
51083;BME280;37131;42.694;23.350;2024-01-16T11:05:24;95105.66;;;3.79;56.77
51083;BME280;37131;42.694;23.350;2024-01-16T11:07:50;95098.81;;;4.00;56.41
51083;BME280;37131;42.694;23.350;2024-01-16T11:10:20;95107.19;;;3.70;57.67
51083;BME280;37131;42.694;23.350;2024-01-16T11:12:46;95108.69;;;3.73;56.29
51083;BME280;37131;42.694;23.350;2024-01-16T11:15:12;95120.34;;;3.86;56.57
51083;BME280;37131;42.694;23.350;2024-01-16T11:17:38;95128.81;;;3.66;56.51
51083;BME280;37131;42.694;23.350;2024-01-16T11:20:05;95125.22;;;3.89;55.87
51083;BME280;37131;42.694;23.350;2024-01-16T11:22:40;95113.31;;;3.79;56.28
51083;BME280;37131;42.694;23.350;2024-01-16T11:25:16;95111.84;;;3.97;56.85
51083;BME280;37131;42.694;23.350;2024-01-16T11:27:45;95101.94;;;4.04;55.70
51083;BME280;37131;42.694;23.350;2024-01-16T11:30:29;95112.19;;;3.92;55.37
51083;BME280;37131;42.694;23.350;2024-01-16T11:32:56;95116.31;;;3.84;53.80
51083;BME280;37131;42.694;23.350;2024-01-16T11:35:36;95116.75;;;3.89;54.93
51083;BME280;37131;42.694;23.350;2024-01-16T11:38:06;95124.97;;;3.40;56.74
51083;BME280;37131;42.694;23.350;2024-01-16T11:40:33;95115.72;;;3.27;56.76
51083;BME280;37131;42.694;23.350;2024-01-16T11:46:09;95119.84;;;3.51;57.77
51083;BME280;37131;42.694;23.350;2024-01-16T11:48:34;95123.69;;;3.45;58.51
51083;BME280;37131;42.694;23.350;2024-01-16T11:51:00;95126.75;;;3.17;58.57
51083;BME280;37131;42.694;23.350;2024-01-16T11:53:46;95132.00;;;3.15;58.49
51083;BME280;37131;42.694;23.350;2024-01-16T11:56:21;95132.44;;;3.20;59.54
51083;BME280;37131;42.694;23.350;2024-01-16T11:59:13;95131.00;;;3.39;60.15
51083;BME280;37131;42.694;23.350;2024-01-16T12:01:44;95125.91;;;3.39;59.13
51083;BME280;37131;42.694;23.350;2024-01-16T12:04:10;95134.50;;;3.38;58.70
51083;BME280;37131;42.694;23.350;2024-01-16T12:06:36;95130.34;;;3.25;57.83
51083;BME280;37131;42.694;23.350;2024-01-16T12:09:16;95147.09;;;3.50;58.50
51083;BME280;37131;42.694;23.350;2024-01-16T12:11:56;95155.34;;;3.54;57.78
51083;BME280;37131;42.694;23.350;2024-01-16T12:14:22;95154.75;;;3.50;58.53
51083;BME280;37131;42.694;23.350;2024-01-16T12:16:48;95160.84;;;3.27;59.42
51083;BME280;37131;42.694;23.350;2024-01-16T12:19:13;95161.31;;;3.32;58.21
51083;BME280;37131;42.694;23.350;2024-01-16T12:21:39;95157.69;;;3.35;58.59
51083;BME280;37131;42.694;23.350;2024-01-16T12:24:06;95142.31;;;3.14;58.05
51083;BME280;37131;42.694;23.350;2024-01-16T12:26:32;95149.66;;;2.96;59.03
51083;BME280;37131;42.694;23.350;2024-01-16T12:28:57;95151.94;;;3.21;58.16
51083;BME280;37131;42.694;23.350;2024-01-16T12:31:23;95154.66;;;2.86;59.73
51083;BME280;37131;42.694;23.350;2024-01-16T12:33:50;95177.59;;;2.64;59.69
51083;BME280;37131;42.694;23.350;2024-01-16T12:36:16;95172.50;;;2.75;59.39
51083;BME280;37131;42.694;23.350;2024-01-16T12:38:42;95166.13;;;3.03;58.98
51083;BME280;37131;42.694;23.350;2024-01-16T12:41:09;95167.97;;;2.67;59.16
51083;BME280;37131;42.694;23.350;2024-01-16T12:43:35;95174.72;;;2.80;58.63
51083;BME280;37131;42.694;23.350;2024-01-16T12:46:04;95181.53;;;2.79;58.29
51083;BME280;37131;42.694;23.350;2024-01-16T12:48:31;95188.03;;;2.83;58.79
51083;BME280;37131;42.694;23.350;2024-01-16T12:51:00;95170.88;;;2.96;58.71
51083;BME280;37131;42.694;23.350;2024-01-16T12:53:27;95174.66;;;3.13;58.32
51083;BME280;37131;42.694;23.350;2024-01-16T12:56:02;95171.75;;;3.18;57.98
51083;BME280;37131;42.694;23.350;2024-01-16T12:58:32;95180.88;;;3.43;58.16
51083;BME280;37131;42.694;23.350;2024-01-16T13:01:23;95166.13;;;3.78;56.36
51083;BME280;37131;42.694;23.350;2024-01-16T13:03:49;95169.38;;;3.48;56.76
51083;BME280;37131;42.694;23.350;2024-01-16T13:06:20;95178.44;;;3.52;57.65